sensor_id;sensor_type;location;lat;lon;timestamp;pressure;altitude;pressure_sealevel;temperature;humidity
10881;BME280;5493;48.884;8.338;2023-11-22T00:01:07;100704.44;;;9.35;100.00
10881;BME280;5493;48.884;8.338;2023-11-22T00:03:34;100704.16;;;9.17;100.00
10881;BME280;5493;48.884;8.338;2023-11-22T00:06:00;100712.84;;;9.19;100.00
10881;BME280;5493;48.884;8.338;2023-11-22T00:08:27;100724.72;;;9.31;100.00
10881;BME280;5493;48.884;8.338;2023-11-22T00:10:54;100724.00;;;9.16;100.00
10881;BME280;5493;48.884;8.338;2023-11-22T00:13:22;100724.25;;;9.21;100.00
10881;BME280;5493;48.884;8.338;2023-11-22T00:15:48;100723.28;;;8.94;100.00
10881;BME280;5493;48.884;8.338;2023-11-22T00:18:16;100720.13;;;9.18;100.00
10881;BME280;5493;48.884;8.338;2023-11-22T00:20:42;100723.41;;;9.14;100.00
10881;BME280;5493;48.884;8.338;2023-11-22T00:23:09;100725.81;;;9.02;100.00
10881;BME280;5493;48.884;8.338;2023-11-22T00:25:35;100728.56;;;8.74;100.00
10881;BME280;5493;48.884;8.338;2023-11-22T00:28:02;100739.81;;;8.57;100.00
10881;BME280;5493;48.884;8.338;2023-11-22T00:30:32;100738.13;;;8.56;100.00
10881;BME280;5493;48.884;8.338;2023-11-22T00:32:59;100747.78;;;8.50;100.00
10881;BME280;5493;48.884;8.338;2023-11-22T00:35:25;100750.44;;;8.44;100.00
10881;BME280;5493;48.884;8.338;2023-11-22T00:37:52;100752.41;;;8.56;100.00
10881;BME280;5493;48.884;8.338;2023-11-22T00:40:18;100756.97;;;8.34;100.00
10881;BME280;5493;48.884;8.338;2023-11-22T00:42:45;100758.66;;;8.63;100.00
10881;BME280;5493;48.884;8.338;2023-11-22T00:45:12;100769.28;;;7.86;100.00
10881;BME280;5493;48.884;8.338;2023-11-22T00:47:40;100772.69;;;7.95;100.00
10881;BME280;5493;48.884;8.338;2023-11-22T00:50:08;100767.88;;;7.90;100.00
10881;BME280;5493;48.884;8.338;2023-11-22T00:52:34;100767.63;;;7.71;100.00
10881;BME280;5493;48.884;8.338;2023-11-22T00:55:01;100764.25;;;7.62;100.00
10881;BME280;5493;48.884;8.338;2023-11-22T00:57:28;100781.16;;;7.77;100.00
10881;BME280;5493;48.884;8.338;2023-11-22T00:59:55;100776.97;;;7.75;100.00
10881;BME280;5493;48.884;8.338;2023-11-22T01:02:22;100784.16;;;7.53;100.00
10881;BME280;5493;48.884;8.338;2023-11-22T01:04:50;100801.09;;;7.39;100.00
10881;BME280;5493;48.884;8.338;2023-11-22T01:07:16;100796.47;;;7.48;100.00
10881;BME280;5493;48.884;8.338;2023-11-22T01:09:43;100801.91;;;7.54;100.00
10881;BME280;5493;48.884;8.338;2023-11-22T01:12:09;100806.09;;;7.42;100.00
10881;BME280;5493;48.884;8.338;2023-11-22T01:14:37;100809.59;;;7.57;100.00
10881;BME280;5493;48.884;8.338;2023-11-22T01:17:04;100808.94;;;7.70;100.00
10881;BME280;5493;48.884;8.338;2023-11-22T01:19:31;100812.28;;;7.42;100.00
10881;BME280;5493;48.884;8.338;2023-11-22T01:21:58;100810.06;;;7.61;100.00
10881;BME280;5493;48.884;8.338;2023-11-22T01:24:25;100812.94;;;7.45;100.00
10881;BME280;5493;48.884;8.338;2023-11-22T01:26:53;100821.00;;;7.01;100.00
10881;BME280;5493;48.884;8.338;2023-11-22T01:29:20;100820.91;;;7.09;100.00
10881;BME280;5493;48.884;8.338;2023-11-22T01:31:47;100822.66;;;7.02;100.00
10881;BME280;5493;48.884;8.338;2023-11-22T01:34:13;100820.91;;;7.23;100.00
10881;BME280;5493;48.884;8.338;2023-11-22T01:36:42;100825.63;;;7.21;100.00
10881;BME280;5493;48.884;8.338;2023-11-22T01:39:10;100822.75;;;7.23;100.00
10881;BME280;5493;48.884;8.338;2023-11-22T01:41:37;100828.75;;;7.39;100.00
10881;BME280;5493;48.884;8.338;2023-11-22T01:44:04;100838.72;;;7.16;100.00
10881;BME280;5493;48.884;8.338;2023-11-22T01:46:31;100833.38;;;7.16;100.00
10881;BME280;5493;48.884;8.338;2023-11-22T01:48:59;100835.34;;;7.22;100.00
10881;BME280;5493;48.884;8.338;2023-11-22T01:51:26;100833.50;;;7.23;100.00
10881;BME280;5493;48.884;8.338;2023-11-22T01:53:56;100839.56;;;7.31;100.00
10881;BME280;5493;48.884;8.338;2023-11-22T01:56:25;100845.38;;;7.06;100.00
10881;BME280;5493;48.884;8.338;2023-11-22T01:58:53;100848.91;;;7.06;100.00
10881;BME280;5493;48.884;8.338;2023-11-22T02:01:20;100859.91;;;6.97;100.00
10881;BME280;5493;48.884;8.338;2023-11-22T02:03:47;100859.28;;;6.72;100.00
10881;BME280;5493;48.884;8.338;2023-11-22T02:06:15;100867.88;;;7.05;100.00
10881;BME280;5493;48.884;8.338;2023-11-22T02:08:42;100869.47;;;6.91;100.00
10881;BME280;5493;48.884;8.338;2023-11-22T02:11:09;100874.84;;;6.76;100.00
10881;BME280;5493;48.884;8.338;2023-11-22T02:13:37;100878.69;;;6.74;100.00
10881;BME280;5493;48.884;8.338;2023-11-22T02:16:04;100881.91;;;6.69;100.00
10881;BME280;5493;48.884;8.338;2023-11-22T02:18:30;100885.03;;;6.58;100.00
10881;BME280;5493;48.884;8.338;2023-11-22T02:20:57;100886.81;;;6.43;100.00
10881;BME280;5493;48.884;8.338;2023-11-22T02:23:25;100895.53;;;6.37;100.00
10881;BME280;5493;48.884;8.338;2023-11-22T02:25:51;100888.31;;;6.37;100.00
10881;BME280;5493;48.884;8.338;2023-11-22T02:28:18;100896.50;;;6.13;100.00
10881;BME280;5493;48.884;8.338;2023-11-22T02:30:44;100888.97;;;6.17;100.00
10881;BME280;5493;48.884;8.338;2023-11-22T02:33:11;100895.75;;;6.27;100.00
10881;BME280;5493;48.884;8.338;2023-11-22T02:35:37;100902.59;;;6.30;100.00
10881;BME280;5493;48.884;8.338;2023-11-22T02:38:06;100901.03;;;6.13;100.00
10881;BME280;5493;48.884;8.338;2023-11-22T02:40:34;100909.19;;;6.19;100.00
10881;BME280;5493;48.884;8.338;2023-11-22T02:43:00;100913.41;;;6.14;100.00
10881;BME280;5493;48.884;8.338;2023-11-22T02:45:30;100920.25;;;6.16;100.00
10881;BME280;5493;48.884;8.338;2023-11-22T02:47:57;100922.31;;;6.06;100.00
10881;BME280;5493;48.884;8.338;2023-11-22T02:50:24;100923.03;;;6.00;100.00
10881;BME280;5493;48.884;8.338;2023-11-22T02:52:52;100926.88;;;5.98;100.00
10881;BME280;5493;48.884;8.338;2023-11-22T02:55:18;100926.84;;;6.06;100.00
10881;BME280;5493;48.884;8.338;2023-11-22T02:57:46;100928.97;;;6.18;100.00
10881;BME280;5493;48.884;8.338;2023-11-22T03:00:14;100929.88;;;6.03;100.00
10881;BME280;5493;48.884;8.338;2023-11-22T03:02:40;100944.63;;;5.90;100.00
10881;BME280;5493;48.884;8.338;2023-11-22T03:05:07;100939.31;;;6.21;100.00
10881;BME280;5493;48.884;8.338;2023-11-22T03:07:34;100933.06;;;5.98;100.00
10881;BME280;5493;48.884;8.338;2023-11-22T03:10:01;100941.94;;;5.99;100.00
10881;BME280;5493;48.884;8.338;2023-11-22T03:12:28;100937.91;;;6.03;100.00
10881;BME280;5493;48.884;8.338;2023-11-22T03:14:56;100946.72;;;6.11;100.00
10881;BME280;5493;48.884;8.338;2023-11-22T03:17:26;100953.38;;;6.15;100.00
10881;BME280;5493;48.884;8.338;2023-11-22T03:19:53;100956.88;;;6.24;100.00
10881;BME280;5493;48.884;8.338;2023-11-22T03:22:21;100957.44;;;6.11;100.00
10881;BME280;5493;48.884;8.338;2023-11-22T03:24:47;100961.63;;;6.06;100.00
10881;BME280;5493;48.884;8.338;2023-11-22T03:27:14;100960.63;;;6.07;100.00
10881;BME280;5493;48.884;8.338;2023-11-22T03:29:40;100962.13;;;6.09;100.00
10881;BME280;5493;48.884;8.338;2023-11-22T03:32:08;100959.63;;;6.08;100.00
10881;BME280;5493;48.884;8.338;2023-11-22T03:34:36;100964.78;;;6.09;100.00
10881;BME280;5493;48.884;8.338;2023-11-22T03:37:03;100960.91;;;6.20;100.00
10881;BME280;5493;48.884;8.338;2023-11-22T03:39:30;100975.28;;;6.19;100.00
10881;BME280;5493;48.884;8.338;2023-11-22T03:41:56;100985.03;;;6.12;100.00
10881;BME280;5493;48.884;8.338;2023-11-22T03:44:23;100985.00;;;6.20;100.00
10881;BME280;5493;48.884;8.338;2023-11-22T03:46:49;100983.00;;;6.22;100.00
10881;BME280;5493;48.884;8.338;2023-11-22T03:49:17;100992.88;;;6.21;100.00
10881;BME280;5493;48.884;8.338;2023-11-22T03:51:44;100998.75;;;6.17;100.00
10881;BME280;5493;48.884;8.338;2023-11-22T03:54:11;100997.53;;;6.19;100.00
10881;BME280;5493;48.884;8.338;2023-11-22T03:56:38;100986.34;;;6.16;100.00
10881;BME280;5493;48.884;8.338;2023-11-22T03:59:04;100994.94;;;6.03;100.00
10881;BME280;5493;48.884;8.338;2023-11-22T04:01:33;100998.25;;;6.13;100.00
10881;BME280;5493;48.884;8.338;2023-11-22T04:04:00;101010.16;;;6.11;100.00
10881;BME280;5493;48.884;8.338;2023-11-22T04:06:28;101010.50;;;6.00;100.00
10881;BME280;5493;48.884;8.338;2023-11-22T04:08:54;101011.50;;;6.07;100.00
10881;BME280;5493;48.884;8.338;2023-11-22T04:11:21;101006.50;;;6.04;100.00
10881;BME280;5493;48.884;8.338;2023-11-22T04:13:48;101003.94;;;6.10;100.00
10881;BME280;5493;48.884;8.338;2023-11-22T04:16:14;101006.78;;;6.09;100.00
10881;BME280;5493;48.884;8.338;2023-11-22T04:18:42;101012.25;;;6.23;100.00
10881;BME280;5493;48.884;8.338;2023-11-22T04:21:09;101014.16;;;6.15;100.00
10881;BME280;5493;48.884;8.338;2023-11-22T04:23:37;101023.47;;;6.19;100.00
10881;BME280;5493;48.884;8.338;2023-11-22T04:26:04;101025.84;;;6.14;100.00
10881;BME280;5493;48.884;8.338;2023-11-22T04:28:32;101034.53;;;6.16;100.00
10881;BME280;5493;48.884;8.338;2023-11-22T04:30:59;101037.22;;;6.16;100.00
10881;BME280;5493;48.884;8.338;2023-11-22T04:33:26;101041.59;;;6.09;100.00
10881;BME280;5493;48.884;8.338;2023-11-22T04:35:53;101039.63;;;5.94;100.00
10881;BME280;5493;48.884;8.338;2023-11-22T04:38:20;101033.63;;;5.92;100.00
10881;BME280;5493;48.884;8.338;2023-11-22T04:40:48;101040.09;;;6.06;100.00
10881;BME280;5493;48.884;8.338;2023-11-22T04:43:14;101053.28;;;6.16;100.00
10881;BME280;5493;48.884;8.338;2023-11-22T04:45:41;101070.69;;;6.20;100.00
10881;BME280;5493;48.884;8.338;2023-11-22T04:48:08;101071.53;;;6.12;100.00
10881;BME280;5493;48.884;8.338;2023-11-22T04:50:35;101079.28;;;5.91;100.00
10881;BME280;5493;48.884;8.338;2023-11-22T04:53:02;101085.44;;;5.83;100.00
10881;BME280;5493;48.884;8.338;2023-11-22T04:55:28;101085.63;;;5.82;100.00
10881;BME280;5493;48.884;8.338;2023-11-22T04:57:56;101081.63;;;5.70;100.00
10881;BME280;5493;48.884;8.338;2023-11-22T05:00:23;101084.94;;;5.80;100.00
10881;BME280;5493;48.884;8.338;2023-11-22T05:02:49;101090.13;;;5.73;100.00
10881;BME280;5493;48.884;8.338;2023-11-22T05:05:16;101084.28;;;5.62;100.00
10881;BME280;5493;48.884;8.338;2023-11-22T05:07:43;101094.34;;;5.68;100.00
10881;BME280;5493;48.884;8.338;2023-11-22T05:10:09;101093.34;;;5.53;100.00
10881;BME280;5493;48.884;8.338;2023-11-22T05:12:36;101101.19;;;5.38;100.00
10881;BME280;5493;48.884;8.338;2023-11-22T05:15:05;101108.69;;;5.34;100.00
10881;BME280;5493;48.884;8.338;2023-11-22T05:17:32;101111.84;;;5.22;100.00
10881;BME280;5493;48.884;8.338;2023-11-22T05:19:59;101116.53;;;5.20;100.00
10881;BME280;5493;48.884;8.338;2023-11-22T05:22:25;101118.03;;;5.22;100.00
10881;BME280;5493;48.884;8.338;2023-11-22T05:24:52;101121.38;;;5.24;100.00
10881;BME280;5493;48.884;8.338;2023-11-22T05:27:18;101120.38;;;5.17;100.00
10881;BME280;5493;48.884;8.338;2023-11-22T05:29:45;101121.50;;;5.15;100.00
10881;BME280;5493;48.884;8.338;2023-11-22T05:32:13;101129.22;;;5.26;100.00
10881;BME280;5493;48.884;8.338;2023-11-22T05:34:38;101122.66;;;5.04;100.00
10881;BME280;5493;48.884;8.338;2023-11-22T05:37:05;101136.56;;;5.16;100.00
10881;BME280;5493;48.884;8.338;2023-11-22T05:39:32;101131.13;;;4.83;100.00
10881;BME280;5493;48.884;8.338;2023-11-22T05:41:59;101122.94;;;4.85;100.00
10881;BME280;5493;48.884;8.338;2023-11-22T05:44:26;101138.44;;;4.81;100.00
10881;BME280;5493;48.884;8.338;2023-11-22T05:46:52;101140.97;;;4.83;100.00
10881;BME280;5493;48.884;8.338;2023-11-22T05:49:21;101133.84;;;4.91;100.00
10881;BME280;5493;48.884;8.338;2023-11-22T05:51:47;101142.47;;;4.77;100.00
10881;BME280;5493;48.884;8.338;2023-11-22T05:54:14;101136.91;;;4.63;100.00
10881;BME280;5493;48.884;8.338;2023-11-22T05:56:41;101148.91;;;4.67;100.00
10881;BME280;5493;48.884;8.338;2023-11-22T05:59:08;101154.19;;;4.51;100.00
10881;BME280;5493;48.884;8.338;2023-11-22T06:01:34;101163.75;;;4.61;100.00
10881;BME280;5493;48.884;8.338;2023-11-22T06:04:01;101167.22;;;4.54;100.00
10881;BME280;5493;48.884;8.338;2023-11-22T06:06:29;101178.69;;;4.46;100.00
10881;BME280;5493;48.884;8.338;2023-11-22T06:08:56;101185.31;;;4.34;100.00
10881;BME280;5493;48.884;8.338;2023-11-22T06:11:22;101186.81;;;4.36;100.00
10881;BME280;5493;48.884;8.338;2023-11-22T06:13:50;101191.31;;;4.36;100.00
10881;BME280;5493;48.884;8.338;2023-11-22T06:16:17;101195.06;;;4.25;100.00
10881;BME280;5493;48.884;8.338;2023-11-22T06:18:43;101197.16;;;4.14;100.00
10881;BME280;5493;48.884;8.338;2023-11-22T06:21:10;101203.22;;;4.24;100.00
10881;BME280;5493;48.884;8.338;2023-11-22T06:23:38;101202.19;;;4.17;100.00
10881;BME280;5493;48.884;8.338;2023-11-22T06:26:05;101204.63;;;4.10;100.00
10881;BME280;5493;48.884;8.338;2023-11-22T06:28:32;101205.53;;;4.19;100.00
10881;BME280;5493;48.884;8.338;2023-11-22T06:31:00;101211.19;;;4.16;100.00
10881;BME280;5493;48.884;8.338;2023-11-22T06:33:26;101209.53;;;3.97;100.00
10881;BME280;5493;48.884;8.338;2023-11-22T06:35:53;101212.22;;;3.97;100.00
10881;BME280;5493;48.884;8.338;2023-11-22T06:38:19;101219.28;;;4.06;100.00
10881;BME280;5493;48.884;8.338;2023-11-22T06:40:48;101218.88;;;4.19;100.00
10881;BME280;5493;48.884;8.338;2023-11-22T06:43:15;101221.06;;;3.97;100.00
10881;BME280;5493;48.884;8.338;2023-11-22T06:45:41;101225.13;;;4.10;100.00
10881;BME280;5493;48.884;8.338;2023-11-22T06:48:08;101230.19;;;3.95;100.00
10881;BME280;5493;48.884;8.338;2023-11-22T06:50:34;101236.53;;;3.94;100.00
10881;BME280;5493;48.884;8.338;2023-11-22T06:53:01;101236.69;;;3.92;100.00
10881;BME280;5493;48.884;8.338;2023-11-22T06:55:28;101250.09;;;3.83;100.00
10881;BME280;5493;48.884;8.338;2023-11-22T06:57:57;101249.41;;;3.81;100.00
10881;BME280;5493;48.884;8.338;2023-11-22T07:00:24;101243.69;;;3.76;100.00
10881;BME280;5493;48.884;8.338;2023-11-22T07:02:52;101244.81;;;3.73;100.00
10881;BME280;5493;48.884;8.338;2023-11-22T07:05:19;101252.28;;;3.70;100.00
10881;BME280;5493;48.884;8.338;2023-11-22T07:07:45;101265.25;;;3.65;100.00
10881;BME280;5493;48.884;8.338;2023-11-22T07:10:13;101272.44;;;3.55;100.00
10881;BME280;5493;48.884;8.338;2023-11-22T07:12:40;101269.88;;;3.63;100.00
10881;BME280;5493;48.884;8.338;2023-11-22T07:15:10;101270.50;;;3.57;100.00
10881;BME280;5493;48.884;8.338;2023-11-22T07:17:36;101273.78;;;3.51;100.00
10881;BME280;5493;48.884;8.338;2023-11-22T07:20:02;101280.06;;;3.50;100.00
10881;BME280;5493;48.884;8.338;2023-11-22T07:22:33;101274.50;;;3.43;100.00
10881;BME280;5493;48.884;8.338;2023-11-22T07:25:00;101275.56;;;3.32;100.00
10881;BME280;5493;48.884;8.338;2023-11-22T07:27:27;101283.34;;;3.43;100.00
10881;BME280;5493;48.884;8.338;2023-11-22T07:29:54;101288.25;;;3.11;100.00
10881;BME280;5493;48.884;8.338;2023-11-22T07:32:22;101293.25;;;3.24;100.00
10881;BME280;5493;48.884;8.338;2023-11-22T07:34:49;101291.13;;;3.27;100.00
10881;BME280;5493;48.884;8.338;2023-11-22T07:37:21;101294.41;;;3.21;100.00
10881;BME280;5493;48.884;8.338;2023-11-22T07:39:47;101290.34;;;3.17;100.00
10881;BME280;5493;48.884;8.338;2023-11-22T07:42:15;101295.81;;;3.16;100.00
10881;BME280;5493;48.884;8.338;2023-11-22T07:44:41;101292.28;;;3.25;100.00
10881;BME280;5493;48.884;8.338;2023-11-22T07:47:08;101300.59;;;3.12;100.00
10881;BME280;5493;48.884;8.338;2023-11-22T07:49:38;101302.53;;;3.20;100.00
10881;BME280;5493;48.884;8.338;2023-11-22T07:52:05;101304.16;;;3.30;100.00
10881;BME280;5493;48.884;8.338;2023-11-22T07:54:32;101304.22;;;3.21;100.00
10881;BME280;5493;48.884;8.338;2023-11-22T07:57:00;101307.34;;;3.43;100.00
10881;BME280;5493;48.884;8.338;2023-11-22T07:59:27;101303.31;;;3.30;100.00
10881;BME280;5493;48.884;8.338;2023-11-22T08:01:53;101308.03;;;3.18;100.00
10881;BME280;5493;48.884;8.338;2023-11-22T08:04:20;101311.97;;;3.41;100.00
10881;BME280;5493;48.884;8.338;2023-11-22T08:06:50;101310.03;;;3.34;100.00
10881;BME280;5493;48.884;8.338;2023-11-22T08:09:16;101311.13;;;3.41;100.00
10881;BME280;5493;48.884;8.338;2023-11-22T08:11:45;101311.66;;;3.44;100.00
10881;BME280;5493;48.884;8.338;2023-11-22T08:14:11;101316.81;;;3.28;100.00
10881;BME280;5493;48.884;8.338;2023-11-22T08:16:39;101316.06;;;3.36;100.00
10881;BME280;5493;48.884;8.338;2023-11-22T08:19:08;101323.25;;;3.26;100.00
10881;BME280;5493;48.884;8.338;2023-11-22T08:21:34;101315.47;;;3.42;100.00
10881;BME280;5493;48.884;8.338;2023-11-22T08:24:03;101321.59;;;3.25;100.00
10881;BME280;5493;48.884;8.338;2023-11-22T08:26:29;101319.56;;;3.36;100.00
10881;BME280;5493;48.884;8.338;2023-11-22T08:28:56;101318.03;;;3.61;100.00
10881;BME280;5493;48.884;8.338;2023-11-22T08:31:22;101320.50;;;3.45;100.00
10881;BME280;5493;48.884;8.338;2023-11-22T08:33:49;101310.25;;;3.50;100.00
10881;BME280;5493;48.884;8.338;2023-11-22T08:36:15;101309.72;;;3.37;100.00
10881;BME280;5493;48.884;8.338;2023-11-22T08:38:43;101304.91;;;3.50;100.00
10881;BME280;5493;48.884;8.338;2023-11-22T08:41:11;101312.16;;;3.58;100.00
10881;BME280;5493;48.884;8.338;2023-11-22T08:43:38;101314.63;;;3.69;100.00
10881;BME280;5493;48.884;8.338;2023-11-22T08:46:06;101317.84;;;3.72;100.00
10881;BME280;5493;48.884;8.338;2023-11-22T08:48:33;101319.13;;;3.68;100.00
10881;BME280;5493;48.884;8.338;2023-11-22T08:51:00;101317.97;;;3.71;100.00
10881;BME280;5493;48.884;8.338;2023-11-22T08:53:29;101317.78;;;4.00;100.00
10881;BME280;5493;48.884;8.338;2023-11-22T08:55:55;101321.81;;;4.04;100.00
10881;BME280;5493;48.884;8.338;2023-11-22T08:58:24;101324.72;;;4.28;100.00
10881;BME280;5493;48.884;8.338;2023-11-22T09:00:50;101324.13;;;4.34;100.00
10881;BME280;5493;48.884;8.338;2023-11-22T09:03:17;101319.38;;;4.28;100.00
10881;BME280;5493;48.884;8.338;2023-11-22T09:05:50;101321.81;;;4.39;100.00
10881;BME280;5493;48.884;8.338;2023-11-22T09:08:18;101320.50;;;4.43;100.00
10881;BME280;5493;48.884;8.338;2023-11-22T09:10:46;101321.81;;;4.39;100.00
10881;BME280;5493;48.884;8.338;2023-11-22T09:13:13;101330.81;;;4.81;100.00
10881;BME280;5493;48.884;8.338;2023-11-22T09:15:43;101310.69;;;4.69;100.00
10881;BME280;5493;48.884;8.338;2023-11-22T09:18:10;101320.94;;;4.74;100.00
10881;BME280;5493;48.884;8.338;2023-11-22T09:20:37;101312.00;;;4.65;100.00
10881;BME280;5493;48.884;8.338;2023-11-22T09:23:04;101319.88;;;5.26;100.00
10881;BME280;5493;48.884;8.338;2023-11-22T09:25:31;101312.56;;;5.36;100.00
10881;BME280;5493;48.884;8.338;2023-11-22T09:28:00;101324.13;;;5.37;100.00
10881;BME280;5493;48.884;8.338;2023-11-22T09:30:28;101333.81;;;5.38;100.00
10881;BME280;5493;48.884;8.338;2023-11-22T09:33:05;101335.16;;;5.84;100.00
10881;BME280;5493;48.884;8.338;2023-11-22T09:35:32;101341.28;;;5.68;100.00
10881;BME280;5493;48.884;8.338;2023-11-22T09:37:59;101343.06;;;5.52;100.00
10881;BME280;5493;48.884;8.338;2023-11-22T09:40:26;101348.47;;;5.60;100.00
10881;BME280;5493;48.884;8.338;2023-11-22T09:42:54;101358.94;;;5.87;100.00
10881;BME280;5493;48.884;8.338;2023-11-22T09:45:21;101354.03;;;5.74;100.00
10881;BME280;5493;48.884;8.338;2023-11-22T09:47:48;101344.31;;;5.73;100.00
10881;BME280;5493;48.884;8.338;2023-11-22T09:50:19;101339.22;;;5.88;100.00
10881;BME280;5493;48.884;8.338;2023-11-22T09:52:50;101332.13;;;5.71;100.00
10881;BME280;5493;48.884;8.338;2023-11-22T09:55:17;101331.75;;;5.66;100.00
10881;BME280;5493;48.884;8.338;2023-11-22T09:57:45;101331.75;;;5.66;100.00
10881;BME280;5493;48.884;8.338;2023-11-22T10:00:13;101329.25;;;5.72;100.00
10881;BME280;5493;48.884;8.338;2023-11-22T10:02:44;101327.13;;;5.84;100.00
10881;BME280;5493;48.884;8.338;2023-11-22T10:05:10;101329.56;;;5.61;100.00
10881;BME280;5493;48.884;8.338;2023-11-22T10:07:39;101328.88;;;5.59;100.00
10881;BME280;5493;48.884;8.338;2023-11-22T10:10:07;101332.47;;;5.84;100.00
10881;BME280;5493;48.884;8.338;2023-11-22T10:12:36;101338.41;;;5.96;100.00
10881;BME280;5493;48.884;8.338;2023-11-22T10:15:15;101335.78;;;5.70;100.00
10881;BME280;5493;48.884;8.338;2023-11-22T10:17:47;101330.22;;;6.13;100.00
10881;BME280;5493;48.884;8.338;2023-11-22T10:20:21;101332.22;;;5.95;100.00
10881;BME280;5493;48.884;8.338;2023-11-22T10:22:49;101352.63;;;6.04;100.00
10881;BME280;5493;48.884;8.338;2023-11-22T10:25:16;101357.66;;;6.15;100.00
10881;BME280;5493;48.884;8.338;2023-11-22T10:27:44;101351.84;;;6.44;100.00
10881;BME280;5493;48.884;8.338;2023-11-22T10:30:12;101355.63;;;6.01;100.00
10881;BME280;5493;48.884;8.338;2023-11-22T10:32:40;101341.97;;;6.28;100.00
10881;BME280;5493;48.884;8.338;2023-11-22T10:35:08;101343.00;;;5.77;100.00
10881;BME280;5493;48.884;8.338;2023-11-22T10:37:35;101349.28;;;6.02;100.00
10881;BME280;5493;48.884;8.338;2023-11-22T10:40:04;101359.00;;;6.19;100.00
10881;BME280;5493;48.884;8.338;2023-11-22T10:42:33;101365.53;;;6.09;100.00
10881;BME280;5493;48.884;8.338;2023-11-22T10:45:00;101371.34;;;5.88;100.00
10881;BME280;5493;48.884;8.338;2023-11-22T10:47:29;101373.00;;;5.97;100.00
10881;BME280;5493;48.884;8.338;2023-11-22T10:49:56;101365.34;;;6.02;100.00
10881;BME280;5493;48.884;8.338;2023-11-22T10:52:25;101376.09;;;6.18;100.00
10881;BME280;5493;48.884;8.338;2023-11-22T10:55:03;101385.81;;;5.77;100.00
10881;BME280;5493;48.884;8.338;2023-11-22T10:57:31;101385.81;;;6.27;100.00
10881;BME280;5493;48.884;8.338;2023-11-22T11:00:02;101384.69;;;6.46;100.00
10881;BME280;5493;48.884;8.338;2023-11-22T11:02:32;101386.13;;;6.16;100.00
10881;BME280;5493;48.884;8.338;2023-11-22T11:05:06;101387.31;;;6.22;100.00
10881;BME280;5493;48.884;8.338;2023-11-22T11:07:43;101387.88;;;6.58;100.00
10881;BME280;5493;48.884;8.338;2023-11-22T11:10:13;101393.88;;;6.35;100.00
10881;BME280;5493;48.884;8.338;2023-11-22T11:12:39;101390.72;;;6.40;100.00
10881;BME280;5493;48.884;8.338;2023-11-22T11:15:07;101394.91;;;6.51;100.00
10881;BME280;5493;48.884;8.338;2023-11-22T11:17:35;101387.88;;;6.74;100.00
10881;BME280;5493;48.884;8.338;2023-11-22T11:20:04;101384.44;;;7.28;100.00
10881;BME280;5493;48.884;8.338;2023-11-22T11:22:32;101397.16;;;7.42;100.00
10881;BME280;5493;48.884;8.338;2023-11-22T11:25:00;101398.25;;;7.01;100.00
10881;BME280;5493;48.884;8.338;2023-11-22T11:27:30;101408.09;;;7.17;100.00
10881;BME280;5493;48.884;8.338;2023-11-22T11:29:59;101413.16;;;6.87;100.00
10881;BME280;5493;48.884;8.338;2023-11-22T11:32:32;101409.44;;;7.21;100.00
10881;BME280;5493;48.884;8.338;2023-11-22T11:35:00;101419.50;;;6.94;100.00
10881;BME280;5493;48.884;8.338;2023-11-22T11:37:31;101417.19;;;6.67;100.00
10881;BME280;5493;48.884;8.338;2023-11-22T11:39:58;101420.38;;;6.71;100.00
10881;BME280;5493;48.884;8.338;2023-11-22T11:42:25;101426.06;;;7.00;100.00
10881;BME280;5493;48.884;8.338;2023-11-22T11:45:03;101421.34;;;7.18;100.00
10881;BME280;5493;48.884;8.338;2023-11-22T11:47:31;101443.13;;;6.67;100.00
10881;BME280;5493;48.884;8.338;2023-11-22T11:49:58;101440.13;;;6.62;100.00
10881;BME280;5493;48.884;8.338;2023-11-22T11:52:25;101434.91;;;6.36;100.00
10881;BME280;5493;48.884;8.338;2023-11-22T11:54:52;101432.03;;;6.37;100.00
10881;BME280;5493;48.884;8.338;2023-11-22T11:57:19;101435.75;;;6.36;100.00
10881;BME280;5493;48.884;8.338;2023-11-22T11:59:46;101439.69;;;6.16;100.00
10881;BME280;5493;48.884;8.338;2023-11-22T12:02:16;101432.72;;;6.48;100.00
10881;BME280;5493;48.884;8.338;2023-11-22T12:04:43;101433.75;;;6.47;100.00
10881;BME280;5493;48.884;8.338;2023-11-22T12:07:11;101435.56;;;6.46;100.00
10881;BME280;5493;48.884;8.338;2023-11-22T12:09:38;101445.13;;;6.49;100.00
10881;BME280;5493;48.884;8.338;2023-11-22T12:12:05;101457.31;;;6.35;100.00
10881;BME280;5493;48.884;8.338;2023-11-22T12:14:31;101455.69;;;6.58;100.00
10881;BME280;5493;48.884;8.338;2023-11-22T12:16:58;101458.13;;;6.27;100.00
10881;BME280;5493;48.884;8.338;2023-11-22T12:19:28;101464.34;;;6.44;100.00
10881;BME280;5493;48.884;8.338;2023-11-22T12:21:56;101470.38;;;6.38;100.00
10881;BME280;5493;48.884;8.338;2023-11-22T12:24:24;101474.50;;;6.16;100.00
10881;BME280;5493;48.884;8.338;2023-11-22T12:26:51;101470.25;;;6.56;100.00
10881;BME280;5493;48.884;8.338;2023-11-22T12:29:16;101463.22;;;6.55;100.00
10881;BME280;5493;48.884;8.338;2023-11-22T12:31:44;101459.84;;;6.44;100.00
10881;BME280;5493;48.884;8.338;2023-11-22T12:34:12;101461.56;;;6.54;100.00
10881;BME280;5493;48.884;8.338;2023-11-22T12:36:41;101454.53;;;6.69;100.00
10881;BME280;5493;48.884;8.338;2023-11-22T12:39:08;101452.16;;;6.50;100.00
10881;BME280;5493;48.884;8.338;2023-11-22T12:41:41;101460.66;;;6.29;100.00
10881;BME280;5493;48.884;8.338;2023-11-22T12:44:08;101454.41;;;6.20;100.00
10881;BME280;5493;48.884;8.338;2023-11-22T12:46:48;101457.03;;;6.04;100.00
10881;BME280;5493;48.884;8.338;2023-11-22T12:49:17;101443.75;;;6.28;100.00
10881;BME280;5493;48.884;8.338;2023-11-22T12:51:50;101432.22;;;6.36;100.00
10881;BME280;5493;48.884;8.338;2023-11-22T12:54:17;101427.34;;;6.31;100.00
10881;BME280;5493;48.884;8.338;2023-11-22T12:56:47;101424.03;;;6.46;100.00
10881;BME280;5493;48.884;8.338;2023-11-22T12:59:14;101425.59;;;6.06;100.00
10881;BME280;5493;48.884;8.338;2023-11-22T13:01:41;101416.25;;;6.10;100.00